Agate, North Dakota
Current Conditions -  °F | °C
As of 8:35 PM on Saturday 25 Oct 2014 (Local Time) from K9D7 Reporting Station
Clear Clear  
Wind Chill: 39°   Ceiling: Unl
Heat Index: 39°   Visibility: 10mi
Dew Point: 25°   Wind: 3mph
Humidity: 56%   Direction: 200°SSW
Pressure: 30.01"   Gusts: NA
Location:  48.62°N, 99.5°W
Report Text: K9D7 260135Z AUTO 20003KT 10SM CLR 04/M04 A3001 RMK AO2
Loading
Personal Weather Stations






























Interactive Weather Map
Tropical Storm Tracking
New forecast layout! Learn more

10-Day Weather Forecast

Advertisements
Track Severe Weather on mobile